createdAt,value
2022-12-20T00:00:05.313Z,957.98
2022-12-20T00:01:05.289Z,958
2022-12-20T00:02:05.375Z,958.02
2022-12-20T00:03:05.271Z,957.97
2022-12-20T00:04:05.213Z,957.92
2022-12-20T00:05:05.187Z,957.95
2022-12-20T00:06:05.184Z,957.96
2022-12-20T00:07:05.173Z,957.94
2022-12-20T00:08:05.133Z,957.92
2022-12-20T00:09:05.111Z,957.82
2022-12-20T00:10:05.093Z,957.78
2022-12-20T00:11:05.073Z,957.89
2022-12-20T00:12:05.053Z,957.83
2022-12-20T00:13:05.034Z,957.84
2022-12-20T00:14:05.013Z,957.79
2022-12-20T00:15:04.993Z,957.78
2022-12-20T00:16:05.008Z,957.81
2022-12-20T00:17:04.957Z,957.86
2022-12-20T00:18:05.037Z,957.85
2022-12-20T00:19:04.922Z,957.86
2022-12-20T00:20:04.912Z,957.94
2022-12-20T00:21:04.883Z,958.03
2022-12-20T00:22:04.862Z,958.07
2022-12-20T00:23:04.842Z,958.18
2022-12-20T00:24:11.106Z,958.18
2022-12-20T00:25:04.807Z,958.28
2022-12-20T00:26:04.790Z,958.16
2022-12-20T00:27:04.769Z,958.12
2022-12-20T00:28:04.755Z,958.18
2022-12-20T00:29:04.756Z,958.18
2022-12-20T00:30:04.714Z,958.14
2022-12-20T00:31:04.759Z,958.11
2022-12-20T00:32:04.807Z,958.14
2022-12-20T00:33:04.658Z,958.07
2022-12-20T00:34:04.667Z,958.07
2022-12-20T00:35:04.625Z,958.04
2022-12-20T00:36:04.608Z,958.17
2022-12-20T00:37:04.581Z,958.17
2022-12-20T00:38:04.565Z,958.18
2022-12-20T00:39:04.545Z,958.13
2022-12-20T00:40:04.525Z,958.1
2022-12-20T00:41:04.511Z,958.05
2022-12-20T00:42:04.490Z,958.11
2022-12-20T00:43:04.467Z,958.04
2022-12-20T00:44:04.475Z,958.06
2022-12-20T00:45:04.433Z,958.05
2022-12-20T00:46:04.426Z,958.02
2022-12-20T00:47:04.437Z,958.06
2022-12-20T00:48:04.404Z,958.08
2022-12-20T00:49:04.938Z,958.14
2022-12-20T00:50:04.922Z,958.18
2022-12-20T00:51:04.901Z,958.14
2022-12-20T00:52:04.883Z,958.23
2022-12-20T00:53:04.862Z,958.06
2022-12-20T00:54:04.856Z,957.99
2022-12-20T00:55:04.829Z,958.03
2022-12-20T00:56:04.808Z,957.99
2022-12-20T00:57:04.790Z,958.01
2022-12-20T00:58:04.771Z,958.03
2022-12-20T00:59:04.755Z,958.11
2022-12-20T01:00:04.735Z,958.14
2022-12-20T01:01:04.780Z,958.17
2022-12-20T01:02:04.862Z,958.14
2022-12-20T01:03:04.798Z,958.2
2022-12-20T01:04:04.694Z,958.18
2022-12-20T01:05:04.653Z,958.2
2022-12-20T01:06:04.623Z,958.19
2022-12-20T01:07:04.607Z,958.17
2022-12-20T01:08:04.587Z,958.24
2022-12-20T01:09:04.571Z,958.23
2022-12-20T01:10:04.552Z,958.21
2022-12-20T01:11:04.551Z,958.3
2022-12-20T01:12:04.514Z,958.23
2022-12-20T01:13:04.510Z,958.22
2022-12-20T01:14:04.475Z,958.13
2022-12-20T01:15:04.468Z,958.13
2022-12-20T01:16:04.493Z,958.09
2022-12-20T01:17:04.541Z,958.07
2022-12-20T01:18:04.404Z,958.07
2022-12-20T01:19:04.389Z,958.01
2022-12-20T01:20:04.406Z,958.04
2022-12-20T01:21:04.347Z,958
2022-12-20T01:22:04.330Z,958.09
2022-12-20T01:23:04.313Z,958.07
2022-12-20T01:24:04.307Z,958.07
2022-12-20T01:25:04.276Z,958.04
2022-12-20T01:26:04.256Z,958.04
2022-12-20T01:27:04.243Z,958
2022-12-20T01:28:04.225Z,957.95
2022-12-20T01:29:04.202Z,957.95
2022-12-20T01:30:04.187Z,957.98
2022-12-20T01:31:04.169Z,957.96
2022-12-20T01:32:04.191Z,957.95
2022-12-20T01:33:04.128Z,957.96
2022-12-20T01:34:04.107Z,957.96
2022-12-20T01:35:04.095Z,957.9
2022-12-20T01:36:04.103Z,957.97
2022-12-20T01:37:04.059Z,957.99
2022-12-20T01:38:04.036Z,957.92
2022-12-20T01:39:04.016Z,957.96
2022-12-20T01:40:03.997Z,958.04
2022-12-20T01:41:03.981Z,958.13
2022-12-20T01:42:03.964Z,958.16
2022-12-20T01:43:03.945Z,958.15
2022-12-20T01:44:03.933Z,958.08
2022-12-20T01:45:03.906Z,958.06
2022-12-20T01:46:03.954Z,958.13
2022-12-20T01:47:03.871Z,958.07
2022-12-20T01:48:03.851Z,958.01
2022-12-20T01:49:03.859Z,958.01
2022-12-20T01:50:03.818Z,958
2022-12-20T01:51:03.795Z,958.08
2022-12-20T01:52:03.808Z,958.01
2022-12-20T01:53:03.759Z,957.93
2022-12-20T01:54:03.742Z,957.94
2022-12-20T01:55:03.728Z,957.93
2022-12-20T01:56:03.724Z,957.93
2022-12-20T01:57:03.697Z,957.93
2022-12-20T01:58:03.688Z,957.89
2022-12-20T01:59:04.003Z,957.97
2022-12-20T02:00:03.950Z,957.89
2022-12-20T02:01:03.991Z,957.87
2022-12-20T02:02:04.067Z,957.82
2022-12-20T02:03:04.113Z,957.76
2022-12-20T02:04:03.884Z,957.77
2022-12-20T02:05:03.858Z,957.83
2022-12-20T02:06:03.841Z,957.78
2022-12-20T02:07:03.821Z,957.78
2022-12-20T02:08:03.832Z,957.77
2022-12-20T02:09:03.789Z,957.75
2022-12-20T02:10:03.769Z,957.72
2022-12-20T02:11:03.754Z,957.72
2022-12-20T02:12:03.733Z,957.6
2022-12-20T02:13:03.711Z,957.63
2022-12-20T02:14:03.721Z,957.68
2022-12-20T02:15:03.704Z,957.72
2022-12-20T02:16:03.658Z,957.69
2022-12-20T02:17:03.667Z,957.64
2022-12-20T02:18:03.625Z,957.63
2022-12-20T02:19:03.601Z,957.61
2022-12-20T02:20:03.586Z,957.64
2022-12-20T02:21:03.567Z,957.58
2022-12-20T02:22:03.546Z,957.63
2022-12-20T02:23:03.528Z,957.62
2022-12-20T02:24:03.542Z,957.62
2022-12-20T02:25:03.494Z,957.62
2022-12-20T02:26:03.475Z,957.6
2022-12-20T02:27:03.458Z,957.58
2022-12-20T02:28:03.444Z,957.53
2022-12-20T02:29:03.420Z,957.55
2022-12-20T02:30:03.419Z,957.57
2022-12-20T02:31:03.385Z,957.54
2022-12-20T02:32:03.440Z,957.44
2022-12-20T02:33:03.369Z,957.41
2022-12-20T02:34:03.327Z,957.38
2022-12-20T02:35:03.308Z,957.33
2022-12-20T02:36:03.291Z,957.42
2022-12-20T02:37:03.278Z,957.31
2022-12-20T02:38:03.263Z,957.28
2022-12-20T02:39:03.241Z,957.29
2022-12-20T02:40:03.298Z,957.3
2022-12-20T02:41:03.215Z,957.28
2022-12-20T02:42:03.191Z,957.32
2022-12-20T02:43:03.193Z,957.33
2022-12-20T02:44:03.149Z,957.3
2022-12-20T02:45:03.127Z,957.35
2022-12-20T02:46:03.136Z,957.4
2022-12-20T02:47:03.097Z,957.37
2022-12-20T02:48:03.077Z,957.4
2022-12-20T02:49:03.062Z,957.34
2022-12-20T02:50:03.033Z,957.28
2022-12-20T02:51:03.015Z,957.27
2022-12-20T02:52:02.996Z,957.29
2022-12-20T02:53:02.979Z,957.3
2022-12-20T02:54:02.975Z,957.32
2022-12-20T02:55:02.944Z,957.36
2022-12-20T02:56:02.949Z,957.36
2022-12-20T02:57:02.905Z,957.39
2022-12-20T02:58:02.890Z,957.43
2022-12-20T02:59:02.868Z,957.42
2022-12-20T03:00:02.848Z,957.32
2022-12-20T03:01:02.888Z,957.41
2022-12-20T03:02:02.967Z,957.39
2022-12-20T03:03:02.924Z,957.46
2022-12-20T03:04:02.777Z,957.43
2022-12-20T03:05:02.769Z,957.5
2022-12-20T03:06:02.738Z,957.49
2022-12-20T03:07:02.721Z,957.49
2022-12-20T03:08:02.704Z,957.59
2022-12-20T03:09:02.687Z,957.59
2022-12-20T03:10:02.668Z,957.56
2022-12-20T03:11:02.651Z,957.56
2022-12-20T03:12:02.656Z,957.61
2022-12-20T03:13:02.614Z,957.59
2022-12-20T03:14:02.596Z,957.6
2022-12-20T03:15:02.610Z,957.65
2022-12-20T03:16:02.557Z,957.56
2022-12-20T03:17:02.590Z,957.56
2022-12-20T03:18:02.520Z,957.5
2022-12-20T03:19:02.503Z,957.52
2022-12-20T03:20:02.485Z,957.51
2022-12-20T03:21:02.466Z,957.49
2022-12-20T03:22:02.456Z,957.56
2022-12-20T03:23:02.437Z,957.47
2022-12-20T03:24:02.411Z,957.46
2022-12-20T03:25:02.401Z,957.48
2022-12-20T03:26:02.374Z,957.48
2022-12-20T03:27:02.363Z,957.48
2022-12-20T03:28:02.366Z,957.52
2022-12-20T03:29:02.323Z,957.51
2022-12-20T03:30:02.311Z,957.47
2022-12-20T03:31:02.395Z,957.46
2022-12-20T03:32:02.266Z,957.44
2022-12-20T03:49:32.333Z,957.23
2022-12-20T03:50:32.298Z,957.25
2022-12-20T03:51:32.270Z,957.2
2022-12-20T03:52:32.247Z,957.27
2022-12-20T03:53:32.224Z,957.2
2022-12-20T03:54:32.207Z,957.22
2022-12-20T03:55:32.190Z,957.22
2022-12-20T03:56:32.174Z,957.13
2022-12-20T03:57:32.152Z,957.16
2022-12-20T03:58:32.127Z,957.13
2022-12-20T03:59:32.107Z,957.1
2022-12-20T04:00:32.088Z,957.1
2022-12-20T04:01:32.173Z,957.11
2022-12-20T04:02:32.194Z,957.13
2022-12-20T04:03:32.131Z,957.12
2022-12-20T04:04:32.018Z,957.15
2022-12-20T04:05:32.020Z,957.15
2022-12-20T04:06:31.978Z,957.21
2022-12-20T04:07:31.966Z,957.19
2022-12-20T04:08:31.935Z,957.22
2022-12-20T04:09:31.921Z,957.21
2022-12-20T04:10:31.905Z,957.22
2022-12-20T04:11:31.878Z,957.24
2022-12-20T04:12:31.862Z,957.28
2022-12-20T04:13:31.840Z,957.29
2022-12-20T04:14:31.823Z,957.29
2022-12-20T04:15:31.847Z,957.28
2022-12-20T04:16:31.864Z,957.29
2022-12-20T04:17:31.768Z,957.31
2022-12-20T04:18:31.748Z,957.34
2022-12-20T04:19:31.741Z,957.35
2022-12-20T04:20:31.715Z,957.4
2022-12-20T04:21:31.720Z,957.46
2022-12-20T04:22:31.676Z,957.45
2022-12-20T04:23:31.655Z,957.48
2022-12-20T04:24:31.642Z,957.49
2022-12-20T04:25:31.618Z,957.48
2022-12-20T04:26:31.611Z,957.51
2022-12-20T04:27:31.584Z,957.43
2022-12-20T04:28:31.573Z,957.45
2022-12-20T04:29:31.546Z,957.42
2022-12-20T04:30:31.529Z,957.39
2022-12-20T04:31:31.556Z,957.36
2022-12-20T04:32:31.494Z,957.38
2022-12-20T04:33:31.471Z,957.39
2022-12-20T04:34:31.461Z,957.32
2022-12-20T04:35:31.436Z,957.29
2022-12-20T04:36:31.418Z,957.35
2022-12-20T04:37:31.427Z,957.38
2022-12-20T04:38:31.380Z,957.34
2022-12-20T04:39:31.367Z,957.3
2022-12-20T04:40:31.348Z,957.27
2022-12-20T04:41:31.325Z,957.27
2022-12-20T04:42:31.307Z,957.23
2022-12-20T04:43:31.307Z,957.21
2022-12-20T04:44:31.483Z,957.22
2022-12-20T04:45:31.455Z,957.21
2022-12-20T04:46:31.473Z,957.23
2022-12-20T04:47:31.423Z,957.2
2022-12-20T04:48:56.008Z,957.16
2022-12-20T04:49:31.381Z,957.13
2022-12-20T04:50:31.362Z,957.1
2022-12-20T04:51:31.353Z,957.15
2022-12-20T04:52:31.328Z,957.17
2022-12-20T04:53:31.331Z,957.16
2022-12-20T04:54:31.296Z,957.14
2022-12-20T04:55:31.271Z,957.17
2022-12-20T04:56:31.253Z,957.17
2022-12-20T04:57:31.235Z,957.26
2022-12-20T04:58:31.230Z,957.22
2022-12-20T04:59:31.199Z,957.16
2022-12-20T05:00:31.180Z,957.07
2022-12-20T05:01:31.263Z,957.02
2022-12-20T05:02:31.284Z,957
2022-12-20T05:03:31.160Z,956.98
2022-12-20T05:04:36.879Z,957
2022-12-20T05:05:31.088Z,956.92
2022-12-20T05:06:31.070Z,956.92
2022-12-20T05:07:31.051Z,956.83
2022-12-20T05:08:31.039Z,956.89
2022-12-20T05:09:31.045Z,956.84
2022-12-20T05:10:30.997Z,956.94
2022-12-20T05:11:30.983Z,956.96
2022-12-20T05:12:30.957Z,957.02
2022-12-20T05:13:30.942Z,957.09
2022-12-20T05:14:30.921Z,957.01
2022-12-20T05:15:30.903Z,957.09
2022-12-20T05:16:30.933Z,957.08
2022-12-20T05:17:30.873Z,957.08
2022-12-20T05:18:30.845Z,957.09
2022-12-20T05:19:30.828Z,957.05
2022-12-20T05:20:30.808Z,957.05
2022-12-20T05:21:30.792Z,956.97
2022-12-20T05:22:30.776Z,956.97
2022-12-20T05:23:30.760Z,956.99
2022-12-20T05:24:30.735Z,956.99
2022-12-20T05:25:30.742Z,956.94
2022-12-20T05:26:30.738Z,956.98
2022-12-20T05:27:30.685Z,956.98
2022-12-20T05:28:30.661Z,957.03
2022-12-20T05:29:30.645Z,957.01
2022-12-20T05:30:30.627Z,957
2022-12-20T05:31:30.711Z,957.01
2022-12-20T05:32:30.589Z,956.97
2022-12-20T05:33:34.126Z,957.01
2022-12-20T05:34:30.553Z,956.95
2022-12-20T05:35:30.546Z,956.92
2022-12-20T05:36:30.531Z,956.85
2022-12-20T05:37:30.516Z,956.92
2022-12-20T05:38:30.477Z,956.93
2022-12-20T05:39:30.459Z,956.95
2022-12-20T05:40:30.447Z,956.96
2022-12-20T05:41:30.457Z,956.94
2022-12-20T05:42:30.407Z,956.98
2022-12-20T05:43:30.382Z,956.91
2022-12-20T05:44:30.367Z,956.91
2022-12-20T05:45:30.348Z,956.84
2022-12-20T05:46:30.375Z,956.87
2022-12-20T05:47:30.315Z,956.79
2022-12-20T05:48:30.293Z,956.83
2022-12-20T05:49:30.275Z,956.83
2022-12-20T05:50:30.273Z,956.85
2022-12-20T05:51:30.247Z,956.86
2022-12-20T05:52:30.223Z,956.85
2022-12-20T05:53:30.201Z,956.9
2022-12-20T05:54:30.184Z,956.84
2022-12-20T05:55:30.164Z,956.87
2022-12-20T05:56:30.147Z,956.88
2022-12-20T05:57:30.153Z,956.91
2022-12-20T05:58:30.109Z,956.96
2022-12-20T05:59:30.100Z,956.92
2022-12-20T06:00:30.075Z,957.02
2022-12-20T06:01:30.133Z,956.92
2022-12-20T06:02:30.207Z,956.9
2022-12-20T06:03:31.070Z,956.95
2022-12-20T06:04:30.906Z,956.84
2022-12-20T06:05:30.886Z,956.77
2022-12-20T06:06:30.869Z,956.57
2022-12-20T06:07:30.848Z,956.47
2022-12-20T06:08:30.830Z,956.4
2022-12-20T06:09:30.812Z,956.38
2022-12-20T06:10:30.796Z,956.37
2022-12-20T06:11:30.838Z,956.34
2022-12-20T06:12:30.756Z,956.37
2022-12-20T06:13:30.760Z,956.37
2022-12-20T06:14:30.725Z,956.44
2022-12-20T06:15:30.707Z,956.43
2022-12-20T06:16:30.740Z,956.51
2022-12-20T06:17:30.684Z,956.55
2022-12-20T06:18:30.647Z,956.53
2022-12-20T06:19:30.628Z,956.49
2022-12-20T06:20:30.631Z,956.51
2022-12-20T06:21:30.592Z,956.52
2022-12-20T06:22:30.573Z,956.51
2022-12-20T06:23:30.555Z,956.5
2022-12-20T06:24:30.539Z,956.56
2022-12-20T06:25:30.519Z,956.59
2022-12-20T06:26:30.498Z,956.64
2022-12-20T06:27:30.479Z,956.63
2022-12-20T06:28:30.462Z,956.69
2022-12-20T06:29:30.471Z,956.68
2022-12-20T06:30:33.950Z,956.56
2022-12-20T06:31:30.502Z,956.58
2022-12-20T06:32:30.389Z,956.58
2022-12-20T06:33:30.372Z,956.62
2022-12-20T06:34:30.352Z,956.57
2022-12-20T06:35:30.335Z,956.58
2022-12-20T06:36:30.315Z,956.52
2022-12-20T06:37:30.297Z,956.48
2022-12-20T06:38:30.282Z,956.44
2022-12-20T06:39:30.264Z,956.47
2022-12-20T06:40:30.242Z,956.47
2022-12-20T06:41:30.224Z,956.49
2022-12-20T06:42:30.211Z,956.37
2022-12-20T06:43:30.190Z,956.35
2022-12-20T06:44:30.172Z,956.14
2022-12-20T06:45:31.721Z,956.28
2022-12-20T06:46:30.196Z,956.18
2022-12-20T06:47:30.117Z,956.22
2022-12-20T06:48:30.102Z,956.21
2022-12-20T06:49:30.080Z,956.23
2022-12-20T06:50:30.076Z,956.11
2022-12-20T06:51:30.143Z,956.11
2022-12-20T06:52:30.023Z,956.24
2022-12-20T06:53:30.007Z,956.2
2022-12-20T06:54:29.988Z,956.18
2022-12-20T06:55:29.971Z,956.1
2022-12-20T06:56:29.952Z,956.19
2022-12-20T06:57:29.935Z,956.13
2022-12-20T06:58:30.784Z,956.17
2022-12-20T06:59:30.759Z,956.25
2022-12-20T07:00:30.804Z,956.22
2022-12-20T07:01:30.830Z,956.16
2022-12-20T07:02:30.844Z,956.17
2022-12-20T07:03:30.741Z,956.08
2022-12-20T07:04:30.689Z,956.09
2022-12-20T07:05:30.648Z,956.06
2022-12-20T07:06:30.629Z,956.04
2022-12-20T07:07:30.611Z,956.05
2022-12-20T07:08:30.591Z,956.05
2022-12-20T07:09:30.576Z,956.07
2022-12-20T07:10:30.585Z,956.06
2022-12-20T07:11:30.538Z,956.17
2022-12-20T07:12:30.524Z,956.22
2022-12-20T07:13:30.504Z,956.19
2022-12-20T07:14:30.488Z,956.24
2022-12-20T07:15:30.466Z,956.2
2022-12-20T07:16:30.483Z,956.2
2022-12-20T07:17:30.451Z,956.21
2022-12-20T07:18:30.421Z,956.17
2022-12-20T07:19:30.399Z,956.09
2022-12-20T07:20:30.487Z,956.08
2022-12-20T07:21:30.357Z,956.09
2022-12-20T07:22:30.343Z,956.03
2022-12-20T07:23:30.327Z,956.17
2022-12-20T07:24:30.306Z,956.18
2022-12-20T07:25:30.289Z,956.16
2022-12-20T07:26:30.264Z,956.22
2022-12-20T07:27:30.243Z,956.28
2022-12-20T07:28:30.228Z,956.32
2022-12-20T07:29:30.215Z,956.35
2022-12-20T07:30:30.191Z,956.32
2022-12-20T07:31:30.208Z,956.29
2022-12-20T07:32:30.237Z,956.27
2022-12-20T07:33:30.164Z,956.27
2022-12-20T07:34:30.118Z,956.3
2022-12-20T07:35:30.113Z,956.28
2022-12-20T07:36:30.081Z,956.29
2022-12-20T07:37:30.149Z,956.21
2022-12-20T07:38:30.055Z,956.13
2022-12-20T07:39:30.028Z,956.2
2022-12-20T07:40:30.074Z,956.28
2022-12-20T07:41:30.074Z,956.28
2022-12-20T07:42:35.708Z,956.23
2022-12-20T07:43:29.955Z,956.1
2022-12-20T07:44:29.938Z,956.29
2022-12-20T07:45:29.945Z,956.2
2022-12-20T07:46:29.993Z,956.27
2022-12-20T07:47:29.890Z,956.26
2022-12-20T07:48:29.869Z,956.26
2022-12-20T07:49:29.875Z,956.3
2022-12-20T07:50:29.829Z,956.22
2022-12-20T07:51:29.810Z,956.17
2022-12-20T07:52:29.809Z,956.18
2022-12-20T07:53:29.779Z,956.15
2022-12-20T07:54:29.757Z,956.18
2022-12-20T07:55:29.737Z,956.19
2022-12-20T07:56:29.738Z,956.13
2022-12-20T07:57:29.708Z,956.2
2022-12-20T07:58:29.696Z,956.22
2022-12-20T07:59:29.666Z,956.33
2022-12-20T08:00:29.653Z,956.38
2022-12-20T08:01:29.690Z,956.44
2022-12-20T08:02:29.856Z,956.5
2022-12-20T08:03:29.754Z,956.55
2022-12-20T08:04:29.578Z,956.62
2022-12-20T08:05:29.584Z,956.65
2022-12-20T08:06:29.539Z,956.67
2022-12-20T08:07:29.534Z,956.64
2022-12-20T08:08:29.502Z,956.71
2022-12-20T08:09:29.487Z,956.75
2022-12-20T08:10:29.469Z,956.65
2022-12-20T08:11:29.448Z,956.65
2022-12-20T08:12:29.432Z,956.58
2022-12-20T08:13:29.417Z,956.49
2022-12-20T08:14:29.400Z,956.58
2022-12-20T08:15:29.380Z,956.55
2022-12-20T08:16:29.448Z,956.61
2022-12-20T08:17:29.346Z,956.59
2022-12-20T08:18:29.326Z,956.57
2022-12-20T08:19:32.350Z,956.59
2022-12-20T08:20:29.296Z,956.57
2022-12-20T08:21:29.306Z,956.56
2022-12-20T08:22:29.252Z,956.51
2022-12-20T08:23:29.235Z,956.48
2022-12-20T08:24:29.218Z,956.39
2022-12-20T08:25:29.202Z,956.38
2022-12-20T08:26:29.182Z,956.45
2022-12-20T08:27:29.167Z,956.47
2022-12-20T08:28:29.162Z,956.5
2022-12-20T08:29:29.137Z,956.47
2022-12-20T08:30:29.114Z,956.52
2022-12-20T08:31:29.260Z,956.51
2022-12-20T08:32:29.076Z,956.43
2022-12-20T08:33:29.058Z,956.43
2022-12-20T08:34:29.039Z,956.39
2022-12-20T08:35:29.025Z,956.37
2022-12-20T08:36:29.006Z,956.47
2022-12-20T08:37:29.023Z,956.42
2022-12-20T08:38:28.971Z,956.48
2022-12-20T08:39:28.954Z,956.41
2022-12-20T08:40:28.933Z,956.39
2022-12-20T08:41:28.918Z,956.36
2022-12-20T08:42:29.150Z,956.32
2022-12-20T08:43:28.881Z,956.27
2022-12-20T08:44:28.864Z,956.19
2022-12-20T08:45:28.844Z,956.17
2022-12-20T08:46:28.966Z,956.29
2022-12-20T08:47:28.812Z,956.23
2022-12-20T08:48:28.796Z,956.22
2022-12-20T08:49:28.786Z,956.2
2022-12-20T08:50:28.779Z,956.23
2022-12-20T08:51:28.805Z,956.23
2022-12-20T08:52:28.720Z,956.2
2022-12-20T08:53:28.729Z,956.05
2022-12-20T08:54:28.748Z,956.18
2022-12-20T08:55:29.005Z,956.13
2022-12-20T08:56:28.651Z,956.13
2022-12-20T08:57:28.632Z,956.2
2022-12-20T08:58:28.636Z,956.2
2022-12-20T08:59:28.601Z,956.16
2022-12-20T09:00:28.581Z,956.19
2022-12-20T09:01:28.642Z,956.17
2022-12-20T09:02:28.734Z,956.09
2022-12-20T09:03:28.584Z,956.15
2022-12-20T09:04:28.518Z,956.08
2022-12-20T09:05:28.495Z,956.14
2022-12-20T09:06:28.513Z,956.07
2022-12-20T09:07:28.455Z,956.01
2022-12-20T09:08:28.444Z,956
2022-12-20T09:09:28.448Z,956
2022-12-20T09:10:28.404Z,956.01
2022-12-20T09:11:28.395Z,956.02
2022-12-20T09:12:28.369Z,956.02
2022-12-20T09:13:28.350Z,956.01
2022-12-20T09:14:28.333Z,956.06
2022-12-20T09:15:28.360Z,956.14
2022-12-20T09:16:28.335Z,956.19
2022-12-20T09:17:28.279Z,956.18
2022-12-20T09:18:28.265Z,956.26
2022-12-20T09:19:28.248Z,956.26
2022-12-20T09:20:28.232Z,956.24
2022-12-20T09:21:28.210Z,956.25
2022-12-20T09:22:28.196Z,956.28
2022-12-20T09:23:28.177Z,956.32
2022-12-20T09:24:28.159Z,956.38
2022-12-20T09:25:28.172Z,956.3
2022-12-20T09:26:28.164Z,956.36
2022-12-20T09:27:28.107Z,956.29
2022-12-20T09:28:28.090Z,956.41
2022-12-20T09:29:33.625Z,956.27
2022-12-20T09:30:28.059Z,956.28
2022-12-20T09:31:28.095Z,956.35
2022-12-20T09:32:28.018Z,956.11
2022-12-20T09:33:28.000Z,956.1
2022-12-20T09:34:27.996Z,956.14
2022-12-20T09:35:27.965Z,956.23
2022-12-20T09:36:27.948Z,956.17
2022-12-20T09:37:29.345Z,956.24
2022-12-20T09:38:27.913Z,956.12
2022-12-20T09:39:27.900Z,956.28
2022-12-20T09:40:27.879Z,956.29
2022-12-20T09:41:27.892Z,956.26
2022-12-20T09:42:27.874Z,956.15
2022-12-20T09:43:27.836Z,956.14
2022-12-20T09:44:27.810Z,956.11
2022-12-20T09:45:27.793Z,956.14
2022-12-20T09:46:27.834Z,956.16
2022-12-20T09:47:27.757Z,956.15
2022-12-20T09:48:27.738Z,956.1
2022-12-20T09:49:27.723Z,956.11
2022-12-20T09:50:27.702Z,956.05
2022-12-20T09:51:27.692Z,956.09
2022-12-20T09:52:27.672Z,956.13
2022-12-20T09:53:27.654Z,956.11
2022-12-20T09:54:27.635Z,955.97
2022-12-20T09:55:27.624Z,956.02
2022-12-20T09:56:27.631Z,955.98
2022-12-20T09:57:27.629Z,955.87
2022-12-20T09:58:27.574Z,955.89
2022-12-20T09:59:27.551Z,955.73
2022-12-20T10:00:27.531Z,955.75
2022-12-20T10:01:31.303Z,955.62
2022-12-20T10:02:55.474Z,955.57
2022-12-20T10:03:27.641Z,955.58
2022-12-20T10:04:27.753Z,955.53
2022-12-20T10:05:27.622Z,955.53
2022-12-20T10:06:27.430Z,955.5
2022-12-20T10:07:27.418Z,955.63
2022-12-20T10:08:27.393Z,955.63
2022-12-20T10:09:27.377Z,955.69
2022-12-20T10:10:27.361Z,955.59
2022-12-20T10:11:29.562Z,955.66
2022-12-20T10:12:27.329Z,955.59
2022-12-20T10:13:27.349Z,955.65
2022-12-20T10:14:27.331Z,955.74
2022-12-20T10:15:27.273Z,955.79
2022-12-20T10:16:27.312Z,955.8
2022-12-20T10:17:32.149Z,955.83
2022-12-20T10:18:27.333Z,955.8
2022-12-20T10:19:27.318Z,955.75
2022-12-20T10:20:27.298Z,955.8
2022-12-20T10:21:27.282Z,955.76
2022-12-20T10:22:27.265Z,955.75
2022-12-20T10:23:32.934Z,955.76
2022-12-20T10:24:27.245Z,955.82
2022-12-20T10:25:27.218Z,955.78
2022-12-20T10:26:27.195Z,955.79
2022-12-20T10:27:27.184Z,955.76
2022-12-20T10:28:27.167Z,955.73
2022-12-20T10:29:27.168Z,955.62
2022-12-20T10:30:27.135Z,955.64
2022-12-20T10:31:27.152Z,955.6
2022-12-20T10:32:27.090Z,955.54
2022-12-20T10:33:27.074Z,955.5
2022-12-20T10:34:30.170Z,955.44
2022-12-20T10:35:27.041Z,955.47
2022-12-20T10:36:27.198Z,955.42
2022-12-20T10:37:27.008Z,955.29
2022-12-20T10:38:26.988Z,955.24
2022-12-20T10:39:26.978Z,955.12
2022-12-20T10:40:39.564Z,955.09
2022-12-20T10:41:28.818Z,955.16
2022-12-20T10:42:28.796Z,955.22
2022-12-20T10:43:28.783Z,955.18
2022-12-20T10:44:28.764Z,955.31
2022-12-20T10:45:34.167Z,955.27
2022-12-20T10:46:28.738Z,955.24
2022-12-20T10:47:28.707Z,955.23
2022-12-20T10:48:28.693Z,955.21
2022-12-20T10:49:28.727Z,955.22
2022-12-20T10:50:28.658Z,955.28
2022-12-20T10:51:28.639Z,955.32
2022-12-20T10:52:28.624Z,955.32
2022-12-20T10:53:28.603Z,955.29
2022-12-20T10:54:28.591Z,955.19
2022-12-20T10:55:28.570Z,955.22
2022-12-20T10:56:28.571Z,955.17
2022-12-20T10:57:28.582Z,955.23
2022-12-20T10:58:28.517Z,955.23
2022-12-20T10:59:28.503Z,955.28
2022-12-20T11:00:28.483Z,955.33
2022-12-20T11:01:28.639Z,955.3
2022-12-20T11:02:34.900Z,955.36
2022-12-20T11:03:28.633Z,955.4
2022-12-20T11:04:28.448Z,955.4
2022-12-20T11:05:28.397Z,955.43
2022-12-20T11:06:28.383Z,955.38
2022-12-20T11:07:28.362Z,955.35
2022-12-20T11:08:50.012Z,955.34
2022-12-20T11:09:28.336Z,955.42
2022-12-20T11:10:28.311Z,955.33
2022-12-20T11:11:28.294Z,955.31
2022-12-20T11:12:28.278Z,955.29
2022-12-20T11:13:28.295Z,955.24
2022-12-20T11:14:31.487Z,955.26
2022-12-20T11:15:33.876Z,955.23
2022-12-20T11:16:28.249Z,955.24
2022-12-20T11:17:28.233Z,955.24
2022-12-20T11:18:28.175Z,955.17
2022-12-20T11:19:28.154Z,955.13
2022-12-20T11:20:28.138Z,955.19
2022-12-20T11:21:28.706Z,955.17
2022-12-20T11:22:28.118Z,955.09
2022-12-20T11:23:28.096Z,955.07
2022-12-20T11:24:28.070Z,955.08
2022-12-20T11:25:28.052Z,955.04
2022-12-20T11:26:28.036Z,955.06
2022-12-20T11:27:28.018Z,954.94
2022-12-20T11:28:28.007Z,955.06
2022-12-20T11:29:27.988Z,954.99
2022-12-20T11:30:27.970Z,955.05
2022-12-20T11:31:28.036Z,955.05
2022-12-20T11:32:27.933Z,954.96
2022-12-20T11:33:27.945Z,954.95
2022-12-20T11:34:27.903Z,954.99
2022-12-20T11:35:27.883Z,954.91
2022-12-20T11:36:27.866Z,954.91
2022-12-20T11:37:27.892Z,954.94
2022-12-20T11:38:27.829Z,954.96
2022-12-20T11:39:27.817Z,954.93
2022-12-20T11:40:27.796Z,954.93
2022-12-20T11:41:27.778Z,954.98
2022-12-20T11:42:27.762Z,954.95
2022-12-20T11:43:27.743Z,954.88
2022-12-20T11:44:28.014Z,954.87
2022-12-20T11:45:27.712Z,954.79
2022-12-20T11:46:27.718Z,954.81
2022-12-20T11:47:27.680Z,954.76
2022-12-20T11:48:27.655Z,954.74
2022-12-20T11:49:27.676Z,954.64
2022-12-20T11:50:27.623Z,954.65
2022-12-20T11:51:27.622Z,954.59
2022-12-20T11:52:27.589Z,954.59
2022-12-20T11:53:27.582Z,954.47
2022-12-20T11:54:27.559Z,954.5
2022-12-20T11:55:27.540Z,954.41
2022-12-20T11:56:27.526Z,954.36
2022-12-20T11:57:27.512Z,954.41
2022-12-20T11:58:27.495Z,954.43
2022-12-20T11:59:27.475Z,954.37
2022-12-20T12:00:27.459Z,954.42
2022-12-20T12:01:27.470Z,954.39
2022-12-20T12:02:27.524Z,954.4
2022-12-20T12:03:27.510Z,954.4
2022-12-20T12:04:27.385Z,954.42
2022-12-20T12:05:27.430Z,954.47
2022-12-20T12:06:27.351Z,954.47
2022-12-20T12:07:27.336Z,954.46
2022-12-20T12:08:27.317Z,954.5
2022-12-20T12:09:27.301Z,954.48
2022-12-20T12:10:27.281Z,954.59
2022-12-20T12:12:27.266Z,954.55
2022-12-20T12:13:27.233Z,954.51
2022-12-20T12:14:27.212Z,954.5
2022-12-20T12:15:27.227Z,954.57
2022-12-20T12:16:27.258Z,954.5
2022-12-20T12:17:27.162Z,954.55
2022-12-20T12:18:27.142Z,954.56
2022-12-20T12:19:27.168Z,954.48
2022-12-20T12:20:27.109Z,954.49
2022-12-20T12:21:27.118Z,954.5
2022-12-20T12:22:27.097Z,954.5
2022-12-20T12:23:27.061Z,954.52
2022-12-20T12:24:27.067Z,954.44
2022-12-20T12:25:27.024Z,954.49
2022-12-20T12:26:27.007Z,954.49
2022-12-20T12:27:26.991Z,954.45
2022-12-20T12:28:26.973Z,954.46
2022-12-20T12:29:26.963Z,954.39
2022-12-20T12:30:26.938Z,954.4
2022-12-20T12:31:26.970Z,954.29
2022-12-20T12:32:26.912Z,954.33
2022-12-20T12:33:26.886Z,954.29
2022-12-20T12:34:26.872Z,954.17
2022-12-20T12:35:26.854Z,954.09
2022-12-20T12:36:26.856Z,954.11
2022-12-20T12:37:26.844Z,954.1
2022-12-20T12:38:26.810Z,954.08
2022-12-20T12:39:26.787Z,954.04
2022-12-20T12:40:26.767Z,954.04
2022-12-20T12:41:26.756Z,954.03
2022-12-20T12:42:26.733Z,954.01
2022-12-20T12:43:26.713Z,954.03
2022-12-20T12:44:26.697Z,953.99
2022-12-20T12:45:26.710Z,953.97
2022-12-20T12:46:26.714Z,953.9
2022-12-20T12:47:26.644Z,953.88
2022-12-20T12:48:26.632Z,953.83